KSSF/SSF METAR and TAF weather

Enter ICAO airport designator
Station Type Date Time Source
KSSF METAR 2020/10/29 15:53 UTC NOAA

KSSF 291553Z 32010G22KT 290V360 10SM CLR 15/03 A3011 RMK AO2 SLP198 T01500033 $


Station Type Date Time Source
KSSF Decoded METAR 2020/10/29 15:53 UTC NOAA

SAN ANTONIO STINSON MUNI, TX, United States (KSSF) 29-20N 098-28W 176M
Oct 29, 2020 - 11:53 AM EDT / 2020.10.29 1553 UTC
Wind: from the NW (320 degrees) at 12 MPH (10 KT) gusting to 25 MPH (22 KT) (direction variable):0
Visibility: 10 mile(s):0
Sky conditions: clear
Temperature: 59.0 F (15.0 C)
Dew Point: 37.9 F (3.3 C)
Relative Humidity: 45%
Pressure (altimeter): 30.11 in. Hg (1019 hPa)
ob: KSSF 291553Z 32010G22KT 290V360 10SM CLR 15/03 A3011 RMK AO2 SLP198 T01500033
cycle: 16

Station Type Date Time Source
KSSF TAF 2020/10/29 12:24 UTC NOAA

TAF KSSF 291121Z 2912/3012 28005KT P6SM SKC
FM291400 33013G23KT P6SM FEW250
FM300000 36005KT P6SM FEW250

Example: see airport list